Time;durP1;ratioP1;P1;durP2;ratioP2;P2;SDS_P1;SDS_P2;PMS_P1;PMS_P2;Temp;Humidity;BMP_temperature;BMP_pressure;BME280_temperature;BME280_humidity;BME280_pressure;Samples;Min_cycle;Max_cycle;Signal;HPM_P1;HPM_P2
2022/11/26 00:02:17;;;;;;;27.70;8.27;;;;;;;12.34;60.05;102554.88;5072767;28;20595;-67
2022/11/26 00:04:43;;;;;;;24.65;8.00;;;;;;;12.42;60.34;102553.94;5071260;28;20086;-69
2022/11/26 00:07:11;;;;;;;28.40;9.25;;;;;;;12.54;60.06;102551.53;5072377;28;20070;-69
2022/11/26 00:09:37;;;;;;;25.48;8.82;;;;;;;12.45;60.67;102561.63;5072905;28;20037;-69
2022/11/26 00:12:23;;;;;;;36.15;9.32;;;;;;;12.47;60.30;102567.66;5068731;28;20385;-70
2022/11/26 00:14:49;;;;;;;25.77;9.30;;;;;;;12.38;61.42;102564.25;5071776;28;20098;-68
2022/11/26 00:17:16;;;;;;;32.17;8.18;;;;;;;12.49;61.30;102570.13;5072179;28;20040;-68
2022/11/26 00:19:42;;;;;;;31.42;9.60;;;;;;;12.47;61.97;102559.56;5072239;28;20032;-69
2022/11/26 00:22:22;;;;;;;20.48;8.82;;;;;;;12.50;62.15;102569.94;5072387;28;20526;-68
2022/11/26 00:24:48;;;;;;;34.08;9.05;;;;;;;12.68;61.04;102574.84;5072379;28;20035;-67
2022/11/26 00:27:13;;;;;;;27.60;9.30;;;;;;;11.74;66.13;102584.16;5072519;28;20032;-68
2022/11/26 00:29:39;;;;;;;34.97;10.48;;;;;;;12.38;63.53;102575.03;5072529;28;20064;-68
2022/11/26 00:32:14;;;;;;;23.08;8.77;;;;;;;12.65;61.79;102573.41;5072285;28;20060;-68
2022/11/26 00:34:40;;;;;;;25.50;8.20;;;;;;;12.64;61.84;102571.72;5072234;28;20067;-67
2022/11/26 00:37:17;;;;;;;20.80;8.15;;;;;;;12.78;61.60;102573.47;5070867;28;20151;-69
2022/11/26 00:39:42;;;;;;;39.97;8.98;;;;;;;12.84;60.77;102577.25;5072644;28;20446;-67
2022/11/26 00:42:09;;;;;;;26.17;8.68;;;;;;;12.21;63.50;102587.13;5072238;28;20040;-69
2022/11/26 00:44:35;;;;;;;29.23;8.55;;;;;;;12.77;61.95;102582.63;5071977;28;20507;-71
2022/11/26 00:47:03;;;;;;;24.38;9.32;;;;;;;12.56;62.57;102590.72;5072086;28;20041;-69
2022/11/26 00:49:28;;;;;;;27.98;9.43;;;;;;;12.71;62.60;102599.59;5072070;28;20033;-69
2022/11/26 00:51:54;;;;;;;27.17;9.35;;;;;;;12.85;61.67;102595.94;5071809;28;20059;-67
2022/11/26 00:54:20;;;;;;;26.67;9.38;;;;;;;12.75;60.57;102590.06;5072428;28;20032;-69
2022/11/26 00:56:47;;;;;;;20.63;8.38;;;;;;;12.62;60.24;102595.34;5071782;28;20040;-68
2022/11/26 00:59:14;;;;;;;21.95;7.32;;;;;;;12.46;60.38;102595.63;5071918;28;20412;-67
2022/11/26 01:01:40;;;;;;;29.58;8.43;;;;;;;12.32;60.19;102596.56;5071842;28;20032;-68
2022/11/26 01:04:05;;;;;;;28.33;7.20;;;;;;;12.24;60.23;102594.00;5071868;28;20089;-68
2022/11/26 01:06:34;;;;;;;13.70;6.40;;;;;;;12.09;60.00;102594.06;5070986;28;20056;-70
2022/11/26 01:09:00;;;;;;;18.77;6.82;;;;;;;11.91;60.35;102596.34;5063241;28;20025;-68
2022/11/26 01:11:26;;;;;;;18.50;6.38;;;;;;;11.87;59.98;102599.63;5051807;28;20036;-68
2022/11/26 01:13:53;;;;;;;17.58;6.40;;;;;;;11.85;60.28;102602.50;5051742;28;20037;-68
2022/11/26 01:16:21;;;;;;;18.95;6.68;;;;;;;11.78;60.17;102603.44;5051644;28;20045;-69
2022/11/26 01:18:49;;;;;;;22.20;6.50;;;;;;;11.66;60.05;102604.97;5051597;28;20044;-67
2022/11/26 01:21:15;;;;;;;19.60;6.07;;;;;;;11.69;60.16;102610.81;5052110;28;20041;-67
2022/11/26 01:23:40;;;;;;;21.70;6.40;;;;;;;11.59;60.54;102623.72;5055018;28;20073;-68
2022/11/26 01:26:12;;;;;;;22.23;6.28;;;;;;;11.55;60.32;102617.03;5071615;28;20083;-68
2022/11/26 01:28:37;;;;;;;24.83;6.13;;;;;;;11.57;60.56;102624.91;5070058;28;20036;-69
2022/11/26 01:31:02;;;;;;;30.42;6.80;;;;;;;11.53;60.24;102621.78;5071385;28;20028;-68
2022/11/26 01:33:28;;;;;;;19.55;6.57;;;;;;;11.48;60.16;102616.09;5071985;28;20017;-68
2022/11/26 01:35:53;;;;;;;18.13;6.55;;;;;;;11.45;60.31;102620.03;5071442;28;20051;-69
2022/11/26 01:38:18;;;;;;;17.80;7.13;;;;;;;11.39;59.83;102614.53;5071498;28;20116;-69
2022/11/26 01:40:47;;;;;;;13.68;5.85;;;;;;;11.37;60.11;102624.66;5071439;28;20060;-68
2022/11/26 01:43:25;;;;;;;21.52;6.00;;;;;;;11.37;60.23;102632.75;5071341;28;20048;-68
2022/11/26 01:45:51;;;;;;;29.13;6.60;;;;;;;11.37;60.07;102632.75;5071330;28;20060;-69
2022/11/26 01:48:32;;;;;;;16.30;6.50;;;;;;;11.32;60.10;102633.28;5072098;28;20023;-68
2022/11/26 01:51:08;;;;;;;16.20;6.32;;;;;;;11.27;60.02;102630.34;5071248;28;20044;-68
2022/11/26 01:53:55;;;;;;;13.75;5.78;;;;;;;11.24;59.78;102630.69;5071511;28;20553;-69
2022/11/26 01:56:35;;;;;;;15.88;5.55;;;;;;;11.15;59.93;102628.28;5071070;28;20499;-67
2022/11/26 01:59:09;;;;;;;13.82;6.32;;;;;;;11.14;59.92;102630.16;5069951;28;20102;-68
2022/11/26 02:01:35;;;;;;;22.10;5.65;;;;;;;11.06;60.08;102626.72;5071390;28;20062;-68
2022/11/26 02:04:12;;;;;;;17.70;6.35;;;;;;;11.10;59.98;102620.78;5069937;28;20036;-68
2022/11/26 02:06:38;;;;;;;11.77;5.00;;;;;;;11.10;60.43;102620.78;5071670;28;20036;-69
2022/11/26 02:09:06;;;;;;;14.57;7.05;;;;;;;11.13;60.21;102612.31;5069357;28;20032;-69
2022/11/26 02:11:32;;;;;;;20.40;6.20;;;;;;;11.12;60.80;102624.13;5069779;28;20044;-68
2022/11/26 02:14:07;;;;;;;23.40;7.07;;;;;;;11.15;60.20;102612.97;5071016;28;20392;-67
2022/11/26 02:16:48;;;;;;;14.13;6.18;;;;;;;11.14;59.91;102619.41;5071046;28;20508;-69
2022/11/26 02:19:44;;;;;;;9.45;5.50;;;;;;;11.03;60.50;102627.91;5071021;28;20445;-68
2022/11/26 02:22:37;;;;;;;14.55;5.63;;;;;;;11.05;60.17;102625.88;5051057;28;20112;-69
2022/11/26 02:25:40;;;;;;;21.13;6.05;;;;;;;11.06;60.80;102629.41;5050663;28;20037;-68
2022/11/26 02:28:27;;;;;;;15.95;6.97;;;;;;;11.11;60.57;102629.66;5059913;28;22053;-68
2022/11/26 02:31:01;;;;;;;17.33;7.20;;;;;;;11.16;60.65;102625.41;5070462;28;20040;-68
2022/11/26 02:33:56;;;;;;;24.60;7.88;;;;;;;11.23;60.80;102641.66;5069990;28;20041;-70
2022/11/26 02:36:31;;;;;;;32.85;8.30;;;;;;;11.31;61.20;102642.41;5074292;28;20047;-67
2022/11/26 02:38:56;;;;;;;33.15;9.25;;;;;;;11.23;61.95;102633.56;5073565;28;20052;-69
2022/11/26 02:41:21;;;;;;;32.58;11.35;;;;;;;11.45;61.61;102638.03;5073799;28;20044;-69
2022/11/26 02:43:47;;;;;;;26.40;11.10;;;;;;;11.47;61.02;102636.81;5073706;28;20120;-68
2022/11/26 02:46:18;;;;;;;37.72;11.57;;;;;;;11.41;62.00;102640.25;5073617;28;20040;-70
2022/11/26 02:48:47;;;;;;;29.48;13.02;;;;;;;11.38;61.99;102640.63;5073978;28;20103;-69
2022/11/26 02:51:18;;;;;;;26.30;10.98;;;;;;;11.41;61.80;102644.81;5073661;28;20078;-69
2022/11/26 02:53:47;;;;;;;36.75;12.35;;;;;;;11.65;61.29;102640.97;5073652;28;20060;-69
2022/11/26 02:56:20;;;;;;;32.25;12.20;;;;;;;11.64;60.90;102645.50;5073343;28;20033;-68
2022/11/26 02:58:47;;;;;;;24.42;11.23;;;;;;;11.65;61.25;102644.50;5073525;28;20059;-68
2022/11/26 03:01:30;;;;;;;30.45;12.70;;;;;;;11.72;61.87;102653.53;5073447;28;20523;-70
2022/11/26 03:04:04;;;;;;;28.77;12.00;;;;;;;11.78;61.22;102658.16;5074037;28;20037;-69
2022/11/26 03:06:33;;;;;;;34.08;12.55;;;;;;;11.60;61.65;102656.84;5074710;28;20054;-68
2022/11/26 03:08:58;;;;;;;23.08;11.48;;;;;;;11.60;61.04;102659.53;5074010;28;20588;-68
2022/11/26 03:11:24;;;;;;;23.23;12.07;;;;;;;11.69;61.49;102662.00;5073976;28;20068;-68
2022/11/26 03:13:49;;;;;;;32.70;12.90;;;;;;;11.61;61.13;102662.06;5072447;28;20136;-68
2022/11/26 03:16:15;;;;;;;36.60;12.73;;;;;;;11.63;61.11;102673.47;5068928;28;20177;-68
2022/11/26 03:18:41;;;;;;;25.73;11.27;;;;;;;11.65;61.07;102671.44;5054186;28;20056;-68
2022/11/26 03:21:06;;;;;;;33.53;12.50;;;;;;;11.68;61.45;102678.31;5053894;28;20041;-71
2022/11/26 03:23:32;;;;;;;20.65;11.07;;;;;;;11.71;61.10;102678.81;5053841;28;20091;-68
2022/11/26 03:25:57;;;;;;;33.15;10.85;;;;;;;11.64;61.73;102677.81;5053953;28;20397;-70
2022/11/26 03:28:23;;;;;;;27.90;10.85;;;;;;;11.57;60.85;102676.91;5065602;28;20032;-68
2022/11/26 03:30:49;;;;;;;23.95;11.30;;;;;;;11.58;61.06;102677.75;5073441;28;20111;-67
2022/11/26 03:33:15;;;;;;;30.48;12.38;;;;;;;11.52;60.69;102688.25;5074006;28;20052;-69
2022/11/26 03:35:40;;;;;;;24.17;12.60;;;;;;;11.46;61.12;102686.28;5073524;28;20059;-70
2022/11/26 03:38:05;;;;;;;25.33;10.57;;;;;;;11.40;61.27;102687.03;5073622;28;20048;-69
2022/11/26 03:40:31;;;;;;;22.83;9.55;;;;;;;11.40;60.71;102694.25;5073490;28;20480;-68
2022/11/26 03:42:56;;;;;;;24.20;10.60;;;;;;;11.33;60.63;102690.66;5072106;28;20133;-68
2022/11/26 03:45:21;;;;;;;33.92;10.60;;;;;;;11.31;60.65;102693.53;5073703;28;20028;-69
2022/11/26 03:47:47;;;;;;;17.00;9.32;;;;;;;11.22;60.35;102691.94;5073362;28;20165;-70
2022/11/26 03:50:12;;;;;;;23.83;10.23;;;;;;;11.14;61.55;102702.81;5071891;28;20060;-69
2022/11/26 03:52:38;;;;;;;15.00;10.20;;;;;;;11.16;60.45;102702.63;5073155;28;20047;-68
2022/11/26 03:55:03;;;;;;;19.30;9.55;;;;;;;11.09;60.57;102702.50;5073119;28;20086;-68
2022/11/26 03:57:28;;;;;;;19.45;8.77;;;;;;;11.05;60.51;102700.34;5073544;28;20064;-69
2022/11/26 03:59:54;;;;;;;18.52;8.32;;;;;;;10.97;60.40;102693.19;5073272;28;20037;-68
2022/11/26 04:02:19;;;;;;;13.85;8.23;;;;;;;10.98;60.24;102704.81;5071612;28;20060;-68
2022/11/26 04:04:44;;;;;;;13.48;8.23;;;;;;;10.95;60.57;102707.84;5072895;28;20040;-69
2022/11/26 04:07:10;;;;;;;19.33;8.88;;;;;;;11.01;60.66;102699.88;5071035;28;20116;-68
2022/11/26 04:09:35;;;;;;;21.30;8.55;;;;;;;11.03;60.79;102700.53;5053284;28;20076;-67
2022/11/26 04:12:01;;;;;;;18.60;8.88;;;;;;;11.04;60.73;102707.59;5051353;28;20063;-68
2022/11/26 04:14:26;;;;;;;25.02;9.43;;;;;;;11.00;60.50;102706.31;5072800;28;20056;-68
2022/11/26 04:16:52;;;;;;;20.83;9.35;;;;;;;10.99;60.20;102712.69;5072603;28;20570;-67
2022/11/26 04:19:17;;;;;;;24.35;9.27;;;;;;;11.04;60.60;102707.59;5072691;28;20060;-68
2022/11/26 04:21:42;;;;;;;16.27;9.02;;;;;;;11.08;60.93;102711.59;5073072;28;20529;-68
2022/11/26 04:24:08;;;;;;;25.80;10.68;;;;;;;11.18;60.67;102711.34;5072620;28;20419;-68
2022/11/26 04:26:33;;;;;;;25.50;10.98;;;;;;;11.35;60.57;102708.28;5072402;28;20032;-68
2022/11/26 04:28:59;;;;;;;28.73;10.43;;;;;;;11.07;61.60;102709.06;5066956;28;20107;-67
2022/11/26 04:31:24;;;;;;;20.23;9.60;;;;;;;11.17;60.87;102717.72;5058364;28;20041;-68
2022/11/26 04:33:50;;;;;;;23.33;10.40;;;;;;;11.21;60.73;102711.81;5072296;28;20035;-68
2022/11/26 04:36:15;;;;;;;30.60;11.65;;;;;;;11.28;61.17;102715.41;5072652;28;20036;-69
2022/11/26 04:38:41;;;;;;;27.33;11.70;;;;;;;11.20;61.61;102723.56;5072353;28;20040;-68
2022/11/26 04:41:06;;;;;;;26.77;11.70;;;;;;;11.23;61.15;102722.38;5072213;28;20052;-68
2022/11/26 04:43:31;;;;;;;30.92;10.68;;;;;;;11.30;61.04;102720.63;5072195;28;20029;-67
2022/11/26 04:45:57;;;;;;;24.95;10.00;;;;;;;11.32;60.66;102723.97;5072080;28;20086;-69
2022/11/26 04:48:22;;;;;;;26.88;10.93;;;;;;;11.24;61.27;102726.75;5072532;28;20613;-67
2022/11/26 04:50:48;;;;;;;22.38;11.35;;;;;;;11.21;61.85;102733.34;5071678;28;20057;-68
2022/11/26 04:53:15;;;;;;;24.50;10.95;;;;;;;11.24;61.76;102729.44;5072157;28;20079;-67
2022/11/26 04:55:40;;;;;;;26.65;11.90;;;;;;;11.30;62.50;102724.16;5072045;28;20036;-70
2022/11/26 04:58:06;;;;;;;29.05;11.57;;;;;;;11.43;61.28;102723.53;5071078;28;20446;-69
2022/11/26 05:00:31;;;;;;;29.20;12.70;;;;;;;11.17;62.50;102733.88;5072327;28;20020;-68
2022/11/26 05:02:56;;;;;;;34.92;12.20;;;;;;;11.30;62.69;102734.91;5069685;28;20032;-68
2022/11/26 05:05:22;;;;;;;26.75;11.65;;;;;;;11.25;62.63;102740.03;5071321;28;20035;-68
2022/11/26 05:07:47;;;;;;;25.33;12.00;;;;;;;11.40;61.74;102743.56;5071372;28;20037;-68
2022/11/26 05:10:13;;;;;;;29.65;12.02;;;;;;;11.36;62.27;102747.63;5070934;28;20029;-69
2022/11/26 05:12:38;;;;;;;27.80;12.48;;;;;;;11.40;61.43;102750.78;5071796;28;20107;-67
2022/11/26 05:15:04;;;;;;;28.73;12.52;;;;;;;11.39;61.80;102746.44;5071376;28;20041;-68
2022/11/26 05:17:30;;;;;;;30.02;11.80;;;;;;;11.41;61.73;102750.63;5071642;28;20032;-69
2022/11/26 05:19:55;;;;;;;30.35;13.65;;;;;;;11.48;61.85;102754.25;5071652;28;20093;-69
2022/11/26 05:22:21;;;;;;;26.60;11.05;;;;;;;11.52;61.63;102754.69;5071308;28;20044;-69
2022/11/26 05:24:46;;;;;;;35.35;12.10;;;;;;;11.47;61.57;102754.44;5071578;28;20029;-67
2022/11/26 05:27:11;;;;;;;29.15;10.88;;;;;;;11.37;61.82;102746.63;5071746;28;20093;-69
2022/11/26 05:29:37;;;;;;;25.30;10.90;;;;;;;11.44;61.40;102758.31;5071237;28;20434;-68
2022/11/26 05:32:02;;;;;;;26.95;12.10;;;;;;;11.23;62.73;102765.44;5071539;28;20060;-69
2022/11/26 05:34:27;;;;;;;23.55;11.52;;;;;;;11.34;61.57;102765.81;5071474;28;20067;-68
2022/11/26 05:36:53;;;;;;;29.85;12.30;;;;;;;11.50;61.46;102767.50;5071109;28;20464;-69
2022/11/26 05:39:18;;;;;;;27.42;11.65;;;;;;;11.44;61.74;102766.41;5071976;28;20063;-69
2022/11/26 05:41:44;;;;;;;21.20;11.80;;;;;;;11.42;61.81;102765.75;5071457;28;20464;-69
2022/11/26 05:44:09;;;;;;;26.38;13.35;;;;;;;11.11;63.42;102772.25;5070998;28;20052;-69
2022/11/26 05:46:39;;;;;;;27.63;12.40;;;;;;;11.49;61.83;102769.38;5070660;28;20051;-68
2022/11/26 05:49:04;;;;;;;31.67;12.77;;;;;;;11.45;61.68;102765.41;5070699;28;20035;-69
2022/11/26 05:51:29;;;;;;;31.42;12.68;;;;;;;11.49;62.02;102769.38;5071149;28;20044;-69
2022/11/26 05:53:55;;;;;;;28.42;12.38;;;;;;;11.47;61.80;102770.59;5069130;28;20044;-70
2022/11/26 05:56:20;;;;;;;22.27;11.32;;;;;;;11.21;62.00;102772.84;5071168;28;20083;-68
2022/11/26 05:58:45;;;;;;;25.83;13.60;;;;;;;11.26;62.70;102770.47;5070973;28;20377;-68
2022/11/26 06:01:11;;;;;;;37.45;14.50;;;;;;;11.23;62.48;102779.72;5071227;28;20094;-69
2022/11/26 06:03:36;;;;;;;23.33;12.13;;;;;;;11.35;61.73;102775.59;5071678;28;20044;-69
2022/11/26 06:06:02;;;;;;;23.35;12.02;;;;;;;11.44;61.70;102774.47;5057571;28;20033;-68
2022/11/26 06:08:28;;;;;;;25.75;12.05;;;;;;;11.47;61.70;102779.50;5050485;28;20025;-69
2022/11/26 06:10:53;;;;;;;29.92;12.32;;;;;;;11.52;61.82;102777.09;5054995;28;20124;-69
2022/11/26 06:13:19;;;;;;;27.13;11.43;;;;;;;11.43;61.88;102780.06;5054897;28;20033;-69
2022/11/26 06:15:44;;;;;;;38.47;14.52;;;;;;;11.52;61.89;102779.78;5061751;28;20025;-68
2022/11/26 06:18:09;;;;;;;35.72;13.93;;;;;;;11.34;62.35;102775.78;5074857;28;20518;-68
2022/11/26 06:20:36;;;;;;;34.85;13.48;;;;;;;11.57;61.77;102779.25;5074995;28;20123;-68
2022/11/26 06:23:01;;;;;;;30.75;14.50;;;;;;;11.50;61.97;102783.66;5074951;28;20036;-68
2022/11/26 06:25:27;;;;;;;36.08;14.57;;;;;;;11.37;62.74;102781.63;5074844;28;20036;-69
2022/11/26 06:27:52;;;;;;;39.13;15.38;;;;;;;11.17;63.51;102783.16;5069248;28;20035;-67
2022/11/26 06:30:18;;;;;;;32.50;15.07;;;;;;;11.33;62.96;102788.38;5055243;28;20115;-68
2022/11/26 06:32:43;;;;;;;31.63;14.30;;;;;;;11.43;62.62;102793.50;5054768;28;20037;-68
2022/11/26 06:35:09;;;;;;;32.03;15.05;;;;;;;11.30;62.98;102801.38;5054847;28;20044;-69
2022/11/26 06:37:34;;;;;;;26.23;14.45;;;;;;;11.12;64.56;102804.41;5054833;28;20041;-69
2022/11/26 06:40:02;;;;;;;42.05;15.57;;;;;;;10.99;64.53;102808.69;5054342;28;20040;-68
2022/11/26 06:42:28;;;;;;;37.75;14.93;;;;;;;10.91;64.37;102803.38;5055069;28;20095;-68
2022/11/26 06:44:54;;;;;;;37.90;16.35;;;;;;;11.19;63.95;102812.56;5053138;28;20455;-69
2022/11/26 06:47:19;;;;;;;35.75;16.25;;;;;;;10.93;64.31;102810.25;5054343;28;20044;-68
2022/11/26 06:49:44;;;;;;;31.98;14.77;;;;;;;10.63;64.66;102822.69;5054529;28;20488;-70
2022/11/26 06:52:10;;;;;;;30.15;13.98;;;;;;;10.95;63.83;102826.19;5054207;28;20120;-71
2022/11/26 06:54:35;;;;;;;51.17;16.05;;;;;;;10.63;65.58;102831.81;5054830;28;20381;-69
2022/11/26 06:57:01;;;;;;;39.90;14.02;;;;;;;10.69;64.89;102826.56;5054157;28;20116;-68
2022/11/26 06:59:26;;;;;;;29.05;14.23;;;;;;;10.78;64.21;102827.31;5054068;28;20136;-70
2022/11/26 07:01:52;;;;;;;35.88;14.65;;;;;;;10.82;63.90;102832.19;5053995;28;20116;-69
2022/11/26 07:04:17;;;;;;;34.70;15.48;;;;;;;11.18;63.00;102829.75;5053383;28;20063;-68
2022/11/26 07:06:44;;;;;;;29.98;14.63;;;;;;;10.72;64.98;102828.88;5053823;28;20051;-70
2022/11/26 07:09:10;;;;;;;32.13;14.07;;;;;;;11.21;63.19;102837.44;5053041;28;20036;-69
2022/11/26 07:11:37;;;;;;;30.27;16.60;;;;;;;11.27;62.46;102842.94;5053310;28;20037;-68
2022/11/26 07:14:03;;;;;;;34.58;13.90;;;;;;;11.22;62.60;102839.13;5052981;28;20047;-68
2022/11/26 07:16:29;;;;;;;43.42;15.85;;;;;;;11.31;62.79;102838.03;5065476;28;20028;-69
2022/11/26 07:18:57;;;;;;;31.27;14.93;;;;;;;11.15;62.70;102843.53;5073007;28;20071;-71
2022/11/26 07:21:23;;;;;;;35.35;13.57;;;;;;;11.22;63.01;102841.81;5073114;28;20570;-70
2022/11/26 07:23:49;;;;;;;37.47;14.93;;;;;;;11.11;63.16;102845.75;5072856;28;20020;-69
2022/11/26 07:26:17;;;;;;;41.22;14.70;;;;;;;11.31;62.43;102840.72;5072940;28;20033;-68
2022/11/26 07:28:42;;;;;;;36.67;13.55;;;;;;;11.26;62.97;102849.31;5072770;28;20063;-70
2022/11/26 07:31:10;;;;;;;45.75;15.15;;;;;;;11.52;62.26;102861.59;5073790;28;20036;-69
2022/11/26 07:33:36;;;;;;;37.80;13.60;;;;;;;10.58;64.69;102859.19;5074329;28;20534;-68
2022/11/26 07:36:04;;;;;;;33.88;14.75;;;;;;;10.36;67.11;102860.81;5073488;28;20124;-69
2022/11/26 07:38:30;;;;;;;35.90;14.13;;;;;;;11.18;63.89;102857.47;5073357;28;20043;-70
2022/11/26 07:41:02;;;;;;;42.97;14.82;;;;;;;11.16;63.41;102850.59;5071367;28;20029;-69
2022/11/26 07:43:28;;;;;;;36.97;15.35;;;;;;;11.18;63.46;102853.97;5072882;28;20418;-69
2022/11/26 07:45:53;;;;;;;33.65;15.27;;;;;;;11.49;62.49;102862.78;5070951;28;20044;-70
2022/11/26 07:48:18;;;;;;;37.90;16.85;;;;;;;11.44;62.64;102860.63;5073654;28;20455;-70
2022/11/26 07:50:44;;;;;;;41.25;16.70;;;;;;;11.35;63.63;102856.34;5072645;28;20395;-69
2022/11/26 07:53:11;;;;;;;33.85;15.57;;;;;;;11.44;62.94;102860.63;5072759;28;20035;-69
2022/11/26 07:55:38;;;;;;;53.00;16.05;;;;;;;11.41;63.30;102861.00;5072779;28;20059;-69
2022/11/26 07:58:03;;;;;;;38.17;16.08;;;;;;;11.44;63.25;102852.53;5072358;28;20047;-69
2022/11/26 08:00:29;;;;;;;40.17;17.77;;;;;;;11.52;62.33;102854.31;5073055;28;20500;-69
2022/11/26 08:02:54;;;;;;;36.22;16.90;;;;;;;10.87;65.09;102861.25;5072531;28;20028;-69
2022/11/26 08:05:19;;;;;;;34.92;16.45;;;;;;;11.55;62.82;102858.50;5072531;28;20114;-71
2022/11/26 08:07:45;;;;;;;32.88;16.63;;;;;;;11.72;62.70;102865.44;5072728;28;20107;-69
2022/11/26 08:10:11;;;;;;;35.70;16.17;;;;;;;11.48;63.30;102867.31;5072427;28;20040;-69
2022/11/26 08:12:36;;;;;;;49.10;16.55;;;;;;;11.47;63.77;102868.34;5073272;28;20040;-69
2022/11/26 08:15:02;;;;;;;43.50;17.52;;;;;;;11.45;63.52;102866.84;5072785;28;20484;-69
2022/11/26 08:17:27;;;;;;;46.72;16.73;;;;;;;11.51;63.29;102863.44;5072663;28;20123;-69
2022/11/26 08:19:52;;;;;;;49.28;16.58;;;;;;;11.59;62.64;102862.53;5072715;28;20158;-70
2022/11/26 08:22:18;;;;;;;41.30;17.52;;;;;;;11.61;62.93;102873.94;5065372;28;20179;-70
2022/11/26 08:24:43;;;;;;;60.42;19.20;;;;;;;11.65;62.64;102884.19;5061389;28;20031;-71
2022/11/26 08:27:09;;;;;;;40.72;18.05;;;;;;;11.92;62.23;102882.75;5071155;28;20535;-69
2022/11/26 08:29:37;;;;;;;38.22;16.75;;;;;;;11.78;62.83;102878.19;5072468;28;20487;-70
2022/11/26 08:32:03;;;;;;;35.25;16.25;;;;;;;11.57;63.69;102878.03;5070974;28;20481;-68
2022/11/26 08:34:29;;;;;;;33.83;18.13;;;;;;;11.79;63.08;102885.25;5061820;28;20124;-70
2022/11/26 08:36:54;;;;;;;37.97;17.15;;;;;;;12.03;62.20;102879.59;5071748;28;20033;-70
2022/11/26 08:39:20;;;;;;;46.97;17.95;;;;;;;11.10;65.81;102887.16;5072205;28;20068;-68
2022/11/26 08:41:46;;;;;;;40.42;18.95;;;;;;;11.05;65.95;102892.22;5071931;28;20122;-70
2022/11/26 08:44:12;;;;;;;40.47;18.52;;;;;;;11.48;65.55;102901.47;5071650;28;20043;-71
2022/11/26 08:46:39;;;;;;;43.90;19.35;;;;;;;10.92;67.69;102907.25;5071648;28;20024;-68
2022/11/26 08:49:06;;;;;;;46.53;19.52;;;;;;;11.59;65.54;102892.13;5071560;28;20036;-69
2022/11/26 08:51:32;;;;;;;49.75;22.27;;;;;;;11.43;65.54;102899.34;5071706;28;20056;-69
2022/11/26 08:53:57;;;;;;;38.80;20.25;;;;;;;11.89;63.80;102892.03;5071310;28;20527;-71
2022/11/26 08:56:24;;;;;;;36.40;19.77;;;;;;;12.14;63.08;102896.16;5071435;28;20527;-69
2022/11/26 08:58:50;;;;;;;50.63;20.52;;;;;;;12.50;61.98;102895.41;5070860;28;20107;-69
2022/11/26 09:01:26;;;;;;;50.70;21.00;;;;;;;12.27;62.65;102890.13;5068753;28;20186;-69
2022/11/26 09:03:54;;;;;;;51.17;21.30;;;;;;;12.41;62.21;102883.88;5065694;28;20794;-69
2022/11/26 09:06:21;;;;;;;58.53;22.98;;;;;;;12.73;61.60;102890.72;5064109;28;20028;-70
2022/11/26 09:11:33;;;;;;;49.45;22.25;;;;;;;12.04;64.25;102882.13;5053579;28;20144;-71
2022/11/26 09:14:00;;;;;;;44.08;22.13;;;;;;;12.67;62.15;102880.69;5054206;28;20028;-69
2022/11/26 09:16:26;;;;;;;48.75;20.83;;;;;;;12.96;62.22;102880.59;5060463;28;20483;-69
2022/11/26 09:18:52;;;;;;;49.88;20.52;;;;;;;12.79;62.49;102882.72;5066714;28;20033;-70
2022/11/26 09:21:18;;;;;;;53.35;22.55;;;;;;;12.68;62.99;102885.88;5068047;28;20050;-70
2022/11/26 09:23:43;;;;;;;51.65;22.23;;;;;;;12.55;64.58;102890.28;5065272;28;20036;-69
2022/11/26 09:26:09;;;;;;;50.85;24.48;;;;;;;13.03;62.25;102885.06;5067437;28;20048;-71
2022/11/26 09:28:34;;;;;;;61.25;22.70;;;;;;;13.09;63.11;102888.88;5066957;28;20048;-70
2022/11/26 09:31:01;;;;;;;50.15;23.70;;;;;;;12.84;63.14;102887.53;5065509;28;20024;-70
2022/11/26 09:33:29;;;;;;;39.65;20.73;;;;;;;12.86;63.73;102898.97;5068306;28;20581;-70
2022/11/26 09:36:03;;;;;;;46.50;20.95;;;;;;;13.43;62.00;102907.06;5066685;28;20044;-72
2022/11/26 09:38:29;;;;;;;42.38;20.67;;;;;;;13.02;63.66;102923.03;5066339;28;20041;-70
2022/11/26 09:41:27;;;;;;;47.72;22.98;;;;;;;12.78;64.51;102921.50;5067237;28;20101;-70
2022/11/26 09:44:37;;;;;;;50.67;21.95;;;;;;;13.35;62.26;102928.78;5067244;28;20029;-69
2022/11/26 09:47:35;;;;;;;45.37;21.50;;;;;;;13.62;62.13;102920.75;5066496;28;20040;-71
2022/11/26 09:50:10;;;;;;;53.53;22.30;;;;;;;13.37;63.31;102927.59;5023546;28;20045;-71
2022/11/26 09:52:40;;;;;;;50.33;20.73;;;;;;;13.16;64.30;102925.72;5022692;28;20045;-71
2022/11/26 09:55:19;;;;;;;67.60;22.60;;;;;;;14.00;61.81;102932.09;5023048;28;20037;-70
2022/11/26 09:58:05;;;;;;;59.80;22.05;;;;;;;13.44;62.46;102919.56;5024638;28;20893;-69
2022/11/26 10:00:43;;;;;;;51.63;22.20;;;;;;;14.03;61.94;102927.13;5024901;28;20069;-70
2022/11/26 10:03:17;;;;;;;44.08;22.70;;;;;;;14.13;61.63;102921.38;5025364;28;20045;-70
2022/11/26 10:05:54;;;;;;;48.50;20.52;;;;;;;13.68;62.95;102928.09;5006680;28;20046;-69
2022/11/26 10:08:45;;;;;;;50.33;19.25;;;;;;;14.28;61.59;102927.53;5005868;28;20156;-70
2022/11/26 10:11:38;;;;;;;56.72;21.15;;;;;;;14.06;62.68;102934.00;5005708;28;20560;-70
2022/11/26 10:14:35;;;;;;;47.15;21.27;;;;;;;13.85;64.07;102926.78;4947063;28;20047;-71
2022/11/26 10:17:04;;;;;;;57.90;22.23;;;;;;;14.11;62.61;102929.66;4926075;29;20043;-71
2022/11/26 10:20:00;;;;;;;44.13;20.05;;;;;;;14.48;62.10;102911.41;4927836;29;20043;-69
2022/11/26 10:22:31;;;;;;;40.00;18.58;;;;;;;14.33;62.26;102921.53;4926156;29;20055;-69
2022/11/26 10:24:58;;;;;;;48.03;19.60;;;;;;;14.00;63.08;102922.13;4926740;29;20055;-68
2022/11/26 10:27:29;;;;;;;38.47;19.00;;;;;;;14.66;61.60;102927.97;4936973;28;20047;-70
2022/11/26 10:30:09;;;;;;;52.53;21.45;;;;;;;14.65;61.98;102926.28;4938461;28;20043;-70
2022/11/26 10:32:39;;;;;;;52.65;19.15;;;;;;;14.46;62.21;102914.34;4938518;29;20039;-69
2022/11/26 10:35:05;;;;;;;49.95;20.02;;;;;;;14.67;62.19;102916.09;4941565;29;20082;-69
2022/11/26 10:37:31;;;;;;;63.95;20.23;;;;;;;14.83;61.09;102911.16;4935874;29;20044;-69
2022/11/26 10:40:13;;;;;;;55.08;19.85;;;;;;;14.89;61.23;102907.66;4937544;29;20037;-71
2022/11/26 10:42:41;;;;;;;43.85;21.30;;;;;;;15.07;61.25;102912.50;4933642;29;20031;-70
2022/11/26 10:45:35;;;;;;;44.03;20.77;;;;;;;14.81;62.05;102912.41;4934523;28;20061;-70
2022/11/26 10:48:33;;;;;;;44.65;18.33;;;;;;;14.99;61.16;102904.56;4932610;29;20066;-69
2022/11/26 10:51:05;;;;;;;43.97;19.33;;;;;;;15.04;61.51;102907.47;4915035;29;20044;-70
2022/11/26 10:53:51;;;;;;;45.45;19.23;;;;;;;15.04;61.23;102901.22;4964195;28;20453;-71
2022/11/26 10:56:24;;;;;;;52.85;19.67;;;;;;;14.84;62.20;102898.44;5025892;28;20049;-69
2022/11/26 10:58:52;;;;;;;38.25;19.65;;;;;;;15.24;61.25;102905.66;5025151;28;20445;-69
2022/11/26 11:01:18;;;;;;;49.88;21.05;;;;;;;14.85;62.55;102900.97;5011321;28;20425;-68
2022/11/26 11:03:53;;;;;;;41.50;18.88;;;;;;;14.95;61.09;102901.41;5027791;28;20044;-70
2022/11/26 11:06:19;;;;;;;45.83;19.52;;;;;;;14.86;61.64;102891.78;5025296;28;20102;-70
2022/11/26 11:08:49;;;;;;;53.85;20.33;;;;;;;14.86;62.43;102899.91;5025549;28;20067;-68
2022/11/26 11:11:21;;;;;;;53.80;18.80;;;;;;;15.32;60.99;102894.63;5027910;28;20045;-69
2022/11/26 11:13:48;;;;;;;46.15;20.27;;;;;;;15.41;61.15;102898.78;5024841;28;20041;-69
2022/11/26 11:16:27;;;;;;;45.47;21.95;;;;;;;15.16;60.75;102899.56;5025268;28;20045;-70
2022/11/26 11:18:59;;;;;;;41.40;20.38;;;;;;;15.60;60.69;102910.72;5027296;28;20033;-68
2022/11/26 11:21:36;;;;;;;40.97;18.23;;;;;;;15.01;62.25;102907.88;5025703;28;20038;-69
2022/11/26 11:24:22;;;;;;;57.45;20.02;;;;;;;14.98;63.10;102901.00;5022053;28;20088;-70